Time;durP1;ratioP1;P1;durP2;ratioP2;P2;SDS_P1;SDS_P2;PMS_P1;PMS_P2;Temp;Humidity;BMP_temperature;BMP_pressure;BME280_temperature;BME280_humidity;BME280_pressure;Samples;Min_cycle;Max_cycle;Signal;HPM_P1;HPM_P2
2021/05/12 00:02:08;;;;;;;38.70;28.53;;;13.40;82.50;;;;;;5033661;28;20060;-83
2021/05/12 00:04:34;;;;;;;33.55;25.52;;;13.40;82.40;;;;;;5047223;28;20544;-82
2021/05/12 00:06:59;;;;;;;35.60;26.05;;;13.30;82.30;;;;;;5013662;28;20032;-82
2021/05/12 00:09:25;;;;;;;30.15;23.88;;;13.30;82.40;;;;;;5015547;28;20096;-81
2021/05/12 00:11:51;;;;;;;34.13;26.47;;;13.30;82.40;;;;;;5030458;28;20108;-83
2021/05/12 00:14:17;;;;;;;36.88;27.60;;;13.20;82.40;;;;;;5033540;28;20028;-82
2021/05/12 00:16:42;;;;;;;40.22;29.50;;;13.30;82.50;;;;;;5032102;28;20022;-82
2021/05/12 00:19:08;;;;;;;33.77;24.40;;;13.30;82.50;;;;;;5015954;28;20125;-82
2021/05/12 00:21:50;;;;;;;38.30;28.35;;;13.30;82.30;;;;;;5013743;28;20065;-85
2021/05/12 00:24:16;;;;;;;39.37;30.53;;;13.30;82.30;;;;;;5029465;28;20037;-82
2021/05/12 00:26:43;;;;;;;40.13;30.08;;;13.40;82.50;;;;;;5032701;28;20352;-83
2021/05/12 00:29:13;;;;;;;39.22;29.63;;;13.40;82.90;;;;;;5013719;28;20116;-80
2021/05/12 00:31:40;;;;;;;38.35;30.08;;;13.40;82.40;;;;;;5033266;28;20171;-83
2021/05/12 00:34:06;;;;;;;38.00;29.02;;;13.40;82.40;;;;;;5027592;28;20030;-83
2021/05/12 00:36:32;;;;;;;36.13;27.77;;;13.40;82.40;;;;;;5031942;28;20036;-87
2021/05/12 00:39:00;;;;;;;37.42;29.05;;;13.40;82.40;;;;;;5024295;28;20026;-82
2021/05/12 00:41:26;;;;;;;45.25;31.33;;;13.40;82.30;;;;;;5062376;28;20104;-83
2021/05/12 00:43:51;;;;;;;35.03;27.03;;;13.40;82.30;;;;;;5013017;28;20446;-84
2021/05/12 00:46:17;;;;;;;37.03;28.58;;;13.40;82.20;;;;;;5044280;28;20041;-81
2021/05/12 00:48:43;;;;;;;32.60;25.10;;;13.40;82.00;;;;;;5025499;28;20041;-82
2021/05/12 00:51:08;;;;;;;32.25;23.83;;;13.30;81.80;;;;;;5030625;28;20033;-82
2021/05/12 00:53:35;;;;;;;31.13;22.17;;;13.30;81.80;;;;;;5029620;28;20472;-83
2021/05/12 00:56:02;;;;;;;25.70;21.38;;;13.20;81.70;;;;;;5022924;28;20038;-82
2021/05/12 00:58:29;;;;;;;38.63;27.10;;;13.20;81.80;;;;;;5013534;28;20046;-81
2021/05/12 01:00:55;;;;;;;35.20;28.08;;;13.20;82.10;;;;;;5044606;28;20040;-81
2021/05/12 01:03:21;;;;;;;41.27;28.47;;;13.20;82.10;;;;;;5051188;28;20026;-81
2021/05/12 01:05:50;;;;;;;36.87;27.33;;;13.30;82.00;;;;;;5043369;28;20030;-82
2021/05/12 01:08:16;;;;;;;34.83;25.52;;;13.30;82.00;;;;;;5030208;28;20095;-81
2021/05/12 01:10:42;;;;;;;37.87;26.40;;;13.30;81.80;;;;;;5030420;28;20036;-83
2021/05/12 01:13:08;;;;;;;32.05;23.48;;;13.20;81.80;;;;;;5043390;28;20030;-82
2021/05/12 01:15:34;;;;;;;32.70;23.60;;;13.20;81.70;;;;;;5030672;28;20957;-82
2021/05/12 01:18:10;;;;;;;32.33;24.30;;;13.00;81.70;;;;;;5031520;28;20037;-81
2021/05/12 01:20:59;;;;;;;33.93;25.70;;;13.00;82.00;;;;;;5013837;28;20049;-82
2021/05/12 01:23:30;;;;;;;30.33;23.37;;;13.00;82.20;;;;;;5029111;28;20022;-81
2021/05/12 01:25:58;;;;;;;33.83;25.20;;;13.10;82.20;;;;;;5066795;28;20034;-82
2021/05/12 01:28:26;;;;;;;38.45;25.05;;;13.10;82.20;;;;;;5018875;28;20469;-82
2021/05/12 01:31:08;;;;;;;32.57;22.57;;;13.20;82.20;;;;;;5029123;28;20097;-83
2021/05/12 01:33:36;;;;;;;33.72;23.95;;;13.30;82.00;;;;;;5060463;28;20021;-83
2021/05/12 01:36:02;;;;;;;33.20;23.60;;;13.30;81.90;;;;;;5075426;28;20025;-82
2021/05/12 01:38:29;;;;;;;31.95;23.10;;;13.30;82.00;;;;;;5014934;28;20025;-81
2021/05/12 01:40:55;;;;;;;27.52;20.63;;;13.30;82.00;;;;;;5056159;28;20042;-83
2021/05/12 01:43:21;;;;;;;30.52;21.75;;;13.30;81.80;;;;;;5032429;28;20029;-82
2021/05/12 01:45:48;;;;;;;28.70;19.77;;;13.30;82.00;;;;;;5051356;28;20053;-83
2021/05/12 01:48:14;;;;;;;23.40;17.98;;;13.30;81.90;;;;;;5033516;28;20112;-82
2021/05/12 01:50:40;;;;;;;28.17;19.05;;;13.30;82.00;;;;;;5032256;28;20540;-81
2021/05/12 01:53:07;;;;;;;27.60;19.15;;;13.30;82.00;;;;;;5031304;28;20030;-82
2021/05/12 01:55:33;;;;;;;28.23;19.65;;;13.30;82.10;;;;;;5033996;28;20037;-83
2021/05/12 01:57:59;;;;;;;24.35;17.77;;;13.30;82.10;;;;;;5062356;28;20385;-82
2021/05/12 02:00:26;;;;;;;20.15;16.60;;;13.30;82.00;;;;;;5066618;28;20086;-82
2021/05/12 02:02:52;;;;;;;25.88;17.35;;;13.30;82.10;;;;;;5025942;28;20026;-83
2021/05/12 02:05:19;;;;;;;23.88;18.08;;;13.30;82.00;;;;;;5029809;28;20038;-83
2021/05/12 02:07:48;;;;;;;22.73;16.63;;;13.30;82.00;;;;;;5043182;28;20068;-85
2021/05/12 02:10:14;;;;;;;22.80;15.73;;;13.30;82.00;;;;;;5023654;28;20057;-82
2021/05/12 02:12:39;;;;;;;25.55;17.95;;;13.30;81.90;;;;;;4996709;28;20431;-86
2021/05/12 02:15:06;;;;;;;26.45;16.40;;;13.30;81.90;;;;;;5021460;28;20041;-82
2021/05/12 02:17:31;;;;;;;23.27;16.73;;;13.30;81.90;;;;;;5046606;28;20515;-82
2021/05/12 02:19:57;;;;;;;22.27;16.02;;;13.30;82.00;;;;;;5028378;28;20133;-82
2021/05/12 02:22:23;;;;;;;21.25;15.90;;;13.30;81.90;;;;;;5033604;28;20400;-83
2021/05/12 02:24:48;;;;;;;20.42;15.52;;;13.30;81.90;;;;;;5045492;28;20034;-84
2021/05/12 02:27:14;;;;;;;22.60;16.50;;;13.30;81.90;;;;;;5047056;28;20038;-82
2021/05/12 02:29:40;;;;;;;22.23;15.00;;;13.30;82.00;;;;;;5031577;28;20120;-83
2021/05/12 02:32:05;;;;;;;24.35;15.60;;;13.30;81.90;;;;;;5026864;28;20044;-83
2021/05/12 02:34:31;;;;;;;21.40;15.32;;;13.20;81.90;;;;;;5047452;28;20041;-82
2021/05/12 02:36:57;;;;;;;21.13;15.00;;;13.20;81.90;;;;;;4997974;28;20029;-82
2021/05/12 02:39:22;;;;;;;19.33;14.70;;;13.30;81.90;;;;;;5025887;28;20037;-82
2021/05/12 02:41:48;;;;;;;24.48;16.33;;;13.20;81.90;;;;;;5013577;28;20087;-83
2021/05/12 02:44:14;;;;;;;21.42;15.20;;;13.10;82.00;;;;;;5019136;28;20036;-83
2021/05/12 02:46:39;;;;;;;20.35;15.02;;;13.10;82.10;;;;;;5045544;28;20049;-82
2021/05/12 02:49:05;;;;;;;22.42;15.02;;;13.20;82.20;;;;;;5048625;28;20033;-82
2021/05/12 02:51:31;;;;;;;21.08;15.25;;;13.10;82.30;;;;;;5049155;28;20034;-82
2021/05/12 02:53:57;;;;;;;19.83;14.70;;;13.10;82.40;;;;;;5052554;28;20026;-82
2021/05/12 02:56:22;;;;;;;24.17;15.50;;;13.10;82.40;;;;;;4996338;28;20458;-82
2021/05/12 02:58:48;;;;;;;20.30;16.00;;;13.10;82.40;;;;;;5013177;28;20454;-82
2021/05/12 03:01:13;;;;;;;23.13;16.07;;;13.10;82.50;;;;;;5011654;28;20105;-82
2021/05/12 03:03:39;;;;;;;21.05;15.00;;;13.10;82.60;;;;;;5041288;28;20030;-82
2021/05/12 03:06:05;;;;;;;21.50;14.43;;;13.10;82.70;;;;;;5027930;28;20463;-83
2021/05/12 03:08:30;;;;;;;22.10;15.50;;;13.00;82.70;;;;;;5028655;28;20025;-82
2021/05/12 03:10:56;;;;;;;20.63;15.90;;;12.90;82.90;;;;;;5026459;28;20371;-83
2021/05/12 03:13:22;;;;;;;19.52;15.82;;;12.90;83.00;;;;;;5014059;28;20034;-82
2021/05/12 03:15:48;;;;;;;22.23;16.02;;;12.90;83.10;;;;;;5031554;28;20486;-81
2021/05/12 03:18:14;;;;;;;24.33;15.30;;;12.90;83.30;;;;;;5048561;28;20103;-83
2021/05/12 03:20:39;;;;;;;23.23;16.55;;;12.90;83.20;;;;;;5029092;28;20045;-82
2021/05/12 03:23:06;;;;;;;23.48;16.42;;;12.90;83.20;;;;;;5021444;28;20406;-84
2021/05/12 03:25:31;;;;;;;22.48;17.10;;;12.90;83.30;;;;;;5043537;28;20044;-84
2021/05/12 03:27:57;;;;;;;22.52;16.20;;;12.80;83.30;;;;;;5033514;28;20507;-87
2021/05/12 03:30:30;;;;;;;18.30;15.33;;;12.80;83.50;;;;;;5029335;28;20041;-83
2021/05/12 03:33:00;;;;;;;21.70;16.02;;;12.70;83.60;;;;;;5041757;28;20072;-87
2021/05/12 03:35:26;;;;;;;25.07;16.60;;;12.70;83.90;;;;;;5026742;28;20068;-84
2021/05/12 03:37:52;;;;;;;20.85;15.38;;;12.70;84.00;;;;;;4995595;28;20026;-83
2021/05/12 03:40:18;;;;;;;19.73;15.73;;;12.70;84.00;;;;;;5056165;28;20310;-82
2021/05/12 03:42:45;;;;;;;19.63;15.02;;;12.70;84.10;;;;;;5030121;28;20030;-82
2021/05/12 03:45:11;;;;;;;21.80;15.48;;;12.80;84.00;;;;;;5046811;28;20089;-82
2021/05/12 03:47:37;;;;;;;24.53;16.23;;;12.70;84.00;;;;;;5053194;28;20041;-81
2021/05/12 03:50:05;;;;;;;22.17;16.80;;;12.70;84.20;;;;;;5024988;28;20374;-83
2021/05/12 03:52:31;;;;;;;21.00;16.00;;;12.70;84.20;;;;;;5064171;28;20128;-81
2021/05/12 03:54:56;;;;;;;20.17;16.03;;;12.60;84.30;;;;;;5048055;28;20120;-81
2021/05/12 03:57:22;;;;;;;21.20;16.03;;;12.60;84.40;;;;;;5020193;28;20037;-82
2021/05/12 03:59:48;;;;;;;21.33;15.87;;;12.60;84.60;;;;;;5028267;28;20047;-81
2021/05/12 04:02:13;;;;;;;21.20;16.60;;;12.60;84.60;;;;;;5027716;28;20386;-82
2021/05/12 04:04:39;;;;;;;22.50;15.80;;;12.60;84.70;;;;;;5049821;28;20026;-82
2021/05/12 04:07:05;;;;;;;24.00;17.60;;;12.60;84.80;;;;;;5044505;28;20038;-84
2021/05/12 04:09:30;;;;;;;21.93;16.63;;;12.60;84.70;;;;;;5034765;28;20037;-82
2021/05/12 04:11:56;;;;;;;23.40;16.60;;;12.60;84.80;;;;;;5045859;28;20504;-82
2021/05/12 04:14:22;;;;;;;22.13;16.25;;;12.60;84.80;;;;;;4997145;28;20026;-81
2021/05/12 04:16:48;;;;;;;20.90;16.53;;;12.60;84.80;;;;;;5027932;28;20042;-82
2021/05/12 04:19:15;;;;;;;21.87;15.90;;;12.60;84.90;;;;;;5010947;28;20054;-81
2021/05/12 04:21:40;;;;;;;23.30;16.40;;;12.60;84.90;;;;;;5023636;28;20496;-81
2021/05/12 04:24:06;;;;;;;18.15;15.25;;;12.70;84.90;;;;;;5047381;28;20034;-84
2021/05/12 04:26:32;;;;;;;19.95;16.05;;;12.70;84.80;;;;;;5023865;28;20030;-82
2021/05/12 04:28:58;;;;;;;23.80;16.77;;;12.70;84.80;;;;;;5013505;28;20471;-82
2021/05/12 04:31:23;;;;;;;18.80;15.30;;;12.80;84.70;;;;;;5064177;28;20481;-81
2021/05/12 04:33:49;;;;;;;17.93;14.30;;;12.80;84.70;;;;;;5044702;28;20033;-83
2021/05/12 04:36:14;;;;;;;15.90;13.07;;;12.90;84.80;;;;;;5043672;28;20476;-81
2021/05/12 04:38:40;;;;;;;16.58;13.98;;;13.00;84.60;;;;;;5014671;28;20050;-81
2021/05/12 04:41:06;;;;;;;18.80;14.82;;;13.20;84.30;;;;;;5060932;28;20072;-85
2021/05/12 04:43:32;;;;;;;20.00;14.45;;;13.30;83.80;;;;;;5050859;28;20030;-81
2021/05/12 04:45:58;;;;;;;16.70;13.43;;;13.40;83.40;;;;;;5036620;28;20513;-83
2021/05/12 04:48:23;;;;;;;16.35;12.52;;;13.30;83.30;;;;;;5045136;28;20067;-82
2021/05/12 04:50:49;;;;;;;15.63;12.63;;;13.30;83.20;;;;;;5031294;28;20503;-82
2021/05/12 04:53:14;;;;;;;14.63;11.75;;;13.30;83.20;;;;;;5014087;28;20036;-82
2021/05/12 04:55:40;;;;;;;15.52;11.55;;;13.20;83.20;;;;;;5043395;28;20034;-81
2021/05/12 04:58:06;;;;;;;18.77;13.77;;;13.30;83.30;;;;;;5062104;28;20057;-82
2021/05/12 05:00:32;;;;;;;15.70;13.35;;;13.30;83.10;;;;;;5064318;28;20120;-82
2021/05/12 05:02:58;;;;;;;19.80;13.60;;;13.30;83.10;;;;;;5015064;28;20038;-81
2021/05/12 05:05:25;;;;;;;16.00;12.30;;;13.30;83.00;;;;;;5031091;28;20022;-82
2021/05/12 05:07:51;;;;;;;16.02;12.32;;;13.30;83.00;;;;;;5023564;28;20041;-85
2021/05/12 05:10:16;;;;;;;15.55;12.23;;;13.40;82.90;;;;;;5020600;28;20041;-83
2021/05/12 05:12:42;;;;;;;16.23;12.18;;;13.50;82.80;;;;;;5030591;28;20115;-82
2021/05/12 05:15:09;;;;;;;14.75;11.82;;;13.50;82.60;;;;;;5047288;28;20160;-81
2021/05/12 05:17:34;;;;;;;16.30;12.10;;;13.60;82.50;;;;;;5024808;28;20029;-82
2021/05/12 05:20:01;;;;;;;16.80;13.00;;;13.60;82.20;;;;;;5016673;28;20049;-83
2021/05/12 05:22:28;;;;;;;16.55;12.52;;;13.80;81.90;;;;;;5012925;28;20034;-81
2021/05/12 05:24:55;;;;;;;17.85;12.20;;;13.80;81.40;;;;;;5030786;28;20030;-82
2021/05/12 05:27:21;;;;;;;15.70;11.30;;;14.00;81.30;;;;;;5055133;28;20025;-82
2021/05/12 05:29:46;;;;;;;15.05;12.02;;;14.30;80.80;;;;;;5050219;28;20351;-84
2021/05/12 05:32:12;;;;;;;14.35;10.52;;;14.50;79.80;;;;;;5049871;28;20088;-82
2021/05/12 05:34:39;;;;;;;15.55;10.48;;;14.70;79.10;;;;;;5065375;28;20768;-81
2021/05/12 05:37:05;;;;;;;14.15;10.55;;;15.00;78.40;;;;;;5027360;28;20473;-81
2021/05/12 05:39:37;;;;;;;14.48;10.18;;;15.00;77.80;;;;;;5021182;28;20045;-81
2021/05/12 05:42:07;;;;;;;15.68;10.23;;;15.10;77.50;;;;;;5029555;28;20065;-82
2021/05/12 05:44:33;;;;;;;11.85;9.63;;;15.30;77.00;;;;;;5013188;28;20026;-82
2021/05/12 05:47:00;;;;;;;13.18;10.48;;;15.90;76.10;;;;;;5013345;28;20054;-81
2021/05/12 05:49:25;;;;;;;11.68;9.32;;;16.10;74.50;;;;;;5014888;28;20096;-82
2021/05/12 05:51:52;;;;;;;14.55;10.15;;;16.70;73.80;;;;;;5013621;28;20025;-81
2021/05/12 05:54:18;;;;;;;15.35;9.18;;;17.90;70.60;;;;;;5014601;28;20501;-84
2021/05/12 05:56:44;;;;;;;9.90;8.25;;;19.10;67.00;;;;;;5030779;28;20114;-84
2021/05/12 05:59:10;;;;;;;11.00;8.60;;;20.30;64.40;;;;;;5032885;28;20057;-83
2021/05/12 06:01:36;;;;;;;9.45;7.88;;;21.20;60.60;;;;;;5031825;28;20118;-81
2021/05/12 06:04:01;;;;;;;10.52;6.40;;;22.00;58.20;;;;;;4997147;28;20030;-82
2021/05/12 06:06:27;;;;;;;9.10;6.80;;;22.50;55.80;;;;;;5011773;28;20026;-83
2021/05/12 06:08:54;;;;;;;8.43;6.95;;;23.10;53.80;;;;;;5014576;28;20038;-82
2021/05/12 06:11:20;;;;;;;9.63;6.85;;;23.30;52.70;;;;;;5016050;28;20034;-80
2021/05/12 06:13:47;;;;;;;6.82;5.82;;;23.50;51.50;;;;;;5027476;28;20036;-83
2021/05/12 06:16:13;;;;;;;11.43;6.70;;;23.70;50.70;;;;;;5015839;28;20029;-81
2021/05/12 06:18:39;;;;;;;7.85;5.57;;;24.20;49.50;;;;;;5013347;28;20040;-83
2021/05/12 06:21:05;;;;;;;9.82;6.13;;;24.70;48.20;;;;;;5022203;28;20614;-82
2021/05/12 06:23:31;;;;;;;8.85;5.40;;;24.60;46.90;;;;;;5023904;28;20035;-83
2021/05/12 06:25:58;;;;;;;10.13;6.00;;;24.60;47.10;;;;;;5031781;28;20033;-81
2021/05/12 06:28:24;;;;;;;10.27;6.05;;;24.90;46.60;;;;;;5019838;28;20060;-82
2021/05/12 06:30:50;;;;;;;8.63;5.40;;;25.00;46.20;;;;;;4995834;28;20065;-85
2021/05/12 06:33:17;;;;;;;9.10;5.57;;;25.30;45.40;;;;;;4998179;28;20081;-82
2021/05/12 06:35:43;;;;;;;7.95;5.10;;;25.50;44.70;;;;;;5012703;28;20034;-86
2021/05/12 06:38:09;;;;;;;8.75;4.93;;;25.70;44.40;;;;;;5021529;28;20036;-80
2021/05/12 06:40:37;;;;;;;8.57;5.55;;;25.80;44.00;;;;;;5015421;28;20120;-85
2021/05/12 06:43:03;;;;;;;6.78;5.10;;;25.90;43.60;;;;;;5031038;28;20112;-80
2021/05/12 06:45:29;;;;;;;10.88;5.85;;;26.10;43.50;;;;;;5045064;28;20029;-80
2021/05/12 06:47:55;;;;;;;8.68;5.22;;;26.10;43.10;;;;;;5030486;28;20059;-81
2021/05/12 06:50:23;;;;;;;7.57;4.18;;;26.10;43.90;;;;;;5014127;28;20390;-82
2021/05/12 06:52:56;;;;;;;10.10;4.40;;;26.00;42.70;;;;;;5010593;28;20033;-81
2021/05/12 06:55:23;;;;;;;6.85;4.30;;;26.20;43.20;;;;;;5017872;28;20017;-80
2021/05/12 06:57:49;;;;;;;7.00;4.63;;;26.20;42.60;;;;;;5013632;28;20207;-85
2021/05/12 07:00:16;;;;;;;5.60;4.45;;;26.20;42.20;;;;;;5023604;28;20558;-84
2021/05/12 07:02:42;;;;;;;8.27;4.55;;;26.20;42.20;;;;;;5026863;28;20120;-84
2021/05/12 07:05:09;;;;;;;5.78;4.35;;;26.40;42.90;;;;;;5011198;28;20038;-86
2021/05/12 07:07:34;;;;;;;5.82;4.22;;;26.60;41.80;;;;;;5018405;28;20038;-84
2021/05/12 07:10:00;;;;;;;7.10;4.53;;;26.70;41.20;;;;;;5012465;28;20394;-85
2021/05/12 07:12:26;;;;;;;8.35;4.55;;;26.80;41.40;;;;;;5024004;28;20462;-85
2021/05/12 07:14:51;;;;;;;6.05;4.55;;;26.90;40.90;;;;;;5020952;28;20037;-85
2021/05/12 07:17:17;;;;;;;4.93;4.00;;;26.90;41.10;;;;;;5033378;28;20453;-85
2021/05/12 07:19:43;;;;;;;6.13;3.92;;;27.10;40.90;;;;;;5029434;28;20136;-85
2021/05/12 07:22:09;;;;;;;6.25;3.75;;;27.10;40.50;;;;;;5030397;28;20116;-84
2021/05/12 07:24:35;;;;;;;6.30;4.35;;;27.10;40.20;;;;;;5021807;28;20026;-81
2021/05/12 07:27:01;;;;;;;5.95;3.92;;;27.10;40.30;;;;;;5008915;28;20095;-84
2021/05/12 07:29:26;;;;;;;8.05;4.47;;;27.30;40.40;;;;;;5041921;28;20025;-85
2021/05/12 07:31:53;;;;;;;7.15;4.78;;;27.50;39.90;;;;;;5025672;28;20026;-84
2021/05/12 07:34:19;;;;;;;7.88;5.03;;;27.50;40.00;;;;;;5030819;28;20064;-84
2021/05/12 07:36:45;;;;;;;7.32;4.68;;;27.40;39.90;;;;;;5015586;28;20030;-82
2021/05/12 07:39:10;;;;;;;7.05;4.40;;;27.50;40.50;;;;;;5021599;28;20116;-84
2021/05/12 07:41:36;;;;;;;6.63;4.90;;;27.60;40.00;;;;;;5039236;28;21493;-83
2021/05/12 07:44:04;;;;;;;5.95;4.13;;;27.70;39.10;;;;;;5025543;28;20060;-82
2021/05/12 07:46:30;;;;;;;10.38;6.85;;;27.90;38.90;;;;;;5031584;28;20133;-83
2021/05/12 07:48:56;;;;;;;10.15;5.72;;;27.90;39.20;;;;;;5045049;28;20195;-83
2021/05/12 07:51:22;;;;;;;7.90;4.40;;;27.90;39.30;;;;;;5031285;28;20101;-82
2021/05/12 07:53:49;;;;;;;10.85;5.15;;;27.60;39.40;;;;;;5065307;28;20038;-84
2021/05/12 07:56:15;;;;;;;9.02;6.07;;;27.80;40.00;;;;;;5047562;28;20109;-83
2021/05/12 07:58:40;;;;;;;7.55;5.13;;;27.90;39.50;;;;;;5043643;28;20033;-82
2021/05/12 08:01:18;;;;;;;6.38;4.72;;;28.20;39.60;;;;;;5025293;28;20037;-82
2021/05/12 08:03:44;;;;;;;13.05;5.03;;;28.60;38.90;;;;;;5039284;28;20033;-82
2021/05/12 08:06:09;;;;;;;7.55;5.32;;;28.60;37.70;;;;;;5040181;28;20029;-82
2021/05/12 08:08:37;;;;;;;7.05;3.47;;;28.60;38.20;;;;;;5038964;28;20029;-85
2021/05/12 08:11:03;;;;;;;6.80;3.42;;;28.60;38.90;;;;;;5005425;28;20029;-82
2021/05/12 08:13:28;;;;;;;8.70;3.47;;;28.80;38.70;;;;;;5021498;28;20137;-82
2021/05/12 08:15:54;;;;;;;5.75;2.85;;;28.60;38.20;;;;;;5050354;28;20030;-82
2021/05/12 08:18:20;;;;;;;7.78;3.28;;;28.40;38.30;;;;;;5016317;28;20053;-81
2021/05/12 08:20:45;;;;;;;5.53;3.33;;;28.50;37.90;;;;;;5040078;28;20508;-80
2021/05/12 08:23:11;;;;;;;4.72;2.38;;;28.40;37.70;;;;;;5013315;28;20090;-81
2021/05/12 08:25:43;;;;;;;6.50;2.60;;;28.40;38.10;;;;;;5030979;28;20188;-81
2021/05/12 08:28:08;;;;;;;6.07;2.40;;;28.40;36.20;;;;;;5018653;28;20105;-80
2021/05/12 08:30:36;;;;;;;5.22;2.17;;;28.20;36.70;;;;;;5017438;28;20184;-83
2021/05/12 08:33:03;;;;;;;4.35;2.63;;;28.00;36.40;;;;;;5019519;28;20065;-81
2021/05/12 08:35:28;;;;;;;5.97;2.75;;;27.40;36.70;;;;;;5020690;28;20482;-81
2021/05/12 08:37:55;;;;;;;4.25;2.63;;;26.60;38.30;;;;;;5046814;28;20034;-80
2021/05/12 08:40:21;;;;;;;6.70;2.05;;;25.80;39.30;;;;;;5028304;28;20034;-81
2021/05/12 08:42:50;;;;;;;5.78;2.60;;;25.40;40.30;;;;;;5068620;28;20038;-83
2021/05/12 08:45:18;;;;;;;5.38;2.38;;;25.50;40.10;;;;;;5036462;28;20061;-82
2021/05/12 08:47:45;;;;;;;6.75;2.92;;;26.00;39.80;;;;;;5035740;28;20050;-80
2021/05/12 08:50:11;;;;;;;4.50;2.15;;;26.60;39.30;;;;;;5021541;28;20037;-81
2021/05/12 08:52:38;;;;;;;4.03;1.73;;;26.80;39.20;;;;;;5019390;28;20389;-82
2021/05/12 08:55:05;;;;;;;6.45;2.55;;;26.60;38.30;;;;;;5019530;28;20069;-81
2021/05/12 08:57:30;;;;;;;6.10;2.70;;;26.30;39.20;;;;;;5017704;28;20022;-81
2021/05/12 08:59:56;;;;;;;5.25;1.85;;;26.40;38.80;;;;;;5036845;28;20060;-80
2021/05/12 09:02:22;;;;;;;8.23;2.95;;;26.80;39.20;;;;;;5035025;28;20033;-81
2021/05/12 09:04:48;;;;;;;4.20;1.77;;;27.20;37.10;;;;;;5000638;28;20502;-82
2021/05/12 09:07:14;;;;;;;4.97;1.80;;;27.00;38.30;;;;;;5041386;28;20080;-80
2021/05/12 09:09:40;;;;;;;5.72;1.90;;;27.40;38.40;;;;;;5036085;28;20108;-80
2021/05/12 09:12:06;;;;;;;5.65;1.67;;;27.90;37.30;;;;;;5043334;28;20470;-80
2021/05/12 09:14:36;;;;;;;4.85;1.95;;;28.10;36.70;;;;;;5021699;28;20028;-80
2021/05/12 09:17:03;;;;;;;4.80;1.73;;;27.90;36.60;;;;;;5035171;28;20017;-82
2021/05/12 09:19:29;;;;;;;6.50;1.63;;;27.60;37.00;;;;;;5022905;28;20093;-81
2021/05/12 09:21:56;;;;;;;4.15;1.55;;;27.40;37.10;;;;;;5050765;28;20054;-82
2021/05/12 09:24:28;;;;;;;5.63;1.50;;;26.90;37.10;;;;;;5037135;28;20042;-79
2021/05/12 09:26:57;;;;;;;5.20;2.08;;;26.40;38.00;;;;;;5045327;28;20028;-83
2021/05/12 09:29:23;;;;;;;5.25;2.08;;;26.00;38.90;;;;;;5031041;28;20022;-80
2021/05/12 09:31:49;;;;;;;6.30;2.53;;;26.20;38.00;;;;;;5019308;28;20033;-79
2021/05/12 09:34:15;;;;;;;3.78;1.70;;;26.70;38.10;;;;;;5019439;28;20651;-78
2021/05/12 09:36:41;;;;;;;2.83;1.30;;;27.00;37.90;;;;;;5018012;28;20029;-79
2021/05/12 09:39:12;;;;;;;4.47;2.00;;;27.70;37.80;;;;;;5032909;28;20033;-80
2021/05/12 09:41:38;;;;;;;3.83;1.58;;;27.70;36.70;;;;;;5042016;28;20041;-79
2021/05/12 09:44:07;;;;;;;4.53;1.33;;;27.10;36.70;;;;;;5040198;28;20037;-81
2021/05/12 09:46:37;;;;;;;7.10;1.60;;;26.40;37.80;;;;;;5026016;28;20057;-79
2021/05/12 09:49:03;;;;;;;5.20;1.80;;;25.90;38.20;;;;;;5039337;28;20022;-79
2021/05/12 09:51:35;;;;;;;7.45;2.10;;;25.60;39.00;;;;;;5035625;28;20694;-79
2021/05/12 09:54:25;;;;;;;5.43;1.88;;;25.20;39.50;;;;;;5048503;28;20021;-80
2021/05/12 09:56:57;;;;;;;4.05;1.30;;;25.20;40.80;;;;;;5080433;28;20033;-82
2021/05/12 09:59:26;;;;;;;4.35;1.60;;;25.80;40.10;;;;;;5040295;28;20575;-82
2021/05/12 10:01:54;;;;;;;4.00;1.60;;;26.20;37.90;;;;;;5032865;28;20058;-83
2021/05/12 10:07:19;;;;;;;4.65;1.92;;;27.20;37.80;;;;;;5049720;28;20048;-81
2021/05/12 10:09:46;;;;;;;5.68;1.83;;;27.60;37.10;;;;;;5049644;28;20041;-81
2021/05/12 10:12:17;;;;;;;4.07;1.80;;;28.00;36.60;;;;;;5049014;28;20032;-81
2021/05/12 10:14:49;;;;;;;3.13;1.10;;;28.30;36.40;;;;;;5043648;28;20048;-81
2021/05/12 10:17:17;;;;;;;4.43;1.65;;;28.20;36.60;;;;;;5013934;28;20384;-82
2021/05/12 10:19:44;;;;;;;3.85;1.75;;;28.20;36.10;;;;;;5035696;28;20045;-82
2021/05/12 10:22:11;;;;;;;4.03;1.40;;;27.80;35.70;;;;;;5061441;28;20021;-85
2021/05/12 10:24:39;;;;;;;4.80;1.42;;;27.10;36.00;;;;;;5040100;28;20034;-82
2021/05/12 10:27:31;;;;;;;4.05;1.48;;;26.40;36.50;;;;;;5014109;28;20117;-80
2021/05/12 10:29:58;;;;;;;4.20;2.00;;;25.90;38.30;;;;;;5024604;28;20105;-82
2021/05/12 10:32:28;;;;;;;4.07;1.60;;;25.50;37.70;;;;;;5033571;28;20087;-83
2021/05/12 10:35:08;;;;;;;5.30;2.40;;;25.40;38.40;;;;;;5024159;28;20018;-82
2021/05/12 10:37:38;;;;;;;4.65;1.58;;;25.90;38.20;;;;;;5026562;28;20037;-82
2021/05/12 10:40:26;;;;;;;3.22;1.10;;;26.30;37.10;;;;;;5021719;28;20034;-83
2021/05/12 10:43:07;;;;;;;3.00;1.10;;;26.70;36.30;;;;;;5023754;28;20371;-82
2021/05/12 10:45:58;;;;;;;2.60;0.88;;;26.80;35.50;;;;;;5037316;28;20049;-81
2021/05/12 10:48:40;;;;;;;3.38;1.40;;;27.20;36.00;;;;;;5032598;28;20045;-82
2021/05/12 10:51:08;;;;;;;6.13;1.48;;;27.00;35.20;;;;;;5024235;28;20153;-84
2021/05/12 10:53:43;;;;;;;5.10;1.35;;;26.40;36.10;;;;;;5030073;28;20026;-82
2021/05/12 10:56:10;;;;;;;4.07;1.40;;;26.10;36.50;;;;;;5026125;28;20034;-82
2021/05/12 10:58:38;;;;;;;5.38;1.10;;;25.90;36.20;;;;;;5011899;28;20044;-82
2021/05/12 11:01:13;;;;;;;3.38;1.25;;;26.10;37.40;;;;;;5047930;28;20116;-85
2021/05/12 11:03:49;;;;;;;3.00;1.13;;;26.60;37.00;;;;;;5031259;28;20113;-81
2021/05/12 11:06:18;;;;;;;3.22;0.90;;;27.00;35.60;;;;;;5011922;28;20018;-81
2021/05/12 11:09:07;;;;;;;3.03;0.80;;;27.20;35.50;;;;;;5028220;28;20018;-80
2021/05/12 11:11:46;;;;;;;3.40;1.00;;;27.40;35.50;;;;;;5026055;28;20473;-81
2021/05/12 11:14:17;;;;;;;5.72;1.10;;;27.40;35.00;;;;;;5028679;28;20033;-83
2021/05/12 11:17:03;;;;;;;3.08;0.77;;;27.20;35.10;;;;;;5033425;28;20026;-81
2021/05/12 11:19:41;;;;;;;4.15;1.30;;;26.80;35.30;;;;;;5024142;28;20030;-81
2021/05/12 11:25:56;;;;;;;4.63;1.00;;;26.50;36.00;;;;;;5015276;28;20481;-84
2021/05/12 11:33:27;;;;;;;5.40;0.70;;;26.80;34.70;;;;;;5032120;28;20596;-81
2021/05/12 11:36:06;;;;;;;2.13;0.50;;;26.50;35.00;;;;;;5031603;28;20021;-81
2021/05/12 11:38:32;;;;;;;5.72;0.63;;;26.60;34.80;;;;;;5028829;28;20025;-83
2021/05/12 11:41:11;;;;;;;5.10;0.90;;;26.90;35.00;;;;;;5029247;28;20030;-81
2021/05/12 11:43:43;;;;;;;4.03;0.60;;;27.20;34.40;;;;;;5030994;28;20026;-81
2021/05/12 11:46:19;;;;;;;3.20;0.50;;;27.20;34.00;;;;;;5025474;28;20061;-81
2021/05/12 11:48:48;;;;;;;5.35;0.80;;;27.00;33.90;;;;;;5026074;28;20495;-83
2021/05/12 11:51:37;;;;;;;3.50;0.60;;;26.50;34.30;;;;;;5024520;28;20030;-83
2021/05/12 11:54:06;;;;;;;3.05;0.60;;;26.20;34.30;;;;;;5031149;28;20030;-83
2021/05/12 11:56:32;;;;;;;4.32;0.55;;;25.90;34.80;;;;;;5022854;28;20087;-83
2021/05/12 11:59:04;;;;;;;2.03;0.40;;;25.80;35.40;;;;;;5031370;28;20030;-82
2021/05/12 12:01:33;;;;;;;3.03;0.50;;;26.00;34.70;;;;;;5019570;28;20030;-84
2021/05/12 12:04:15;;;;;;;3.28;0.52;;;26.00;35.10;;;;;;5039368;28;20030;-81
2021/05/12 12:06:43;;;;;;;4.22;0.52;;;25.80;35.20;;;;;;5030975;28;20069;-86
2021/05/12 12:09:10;;;;;;;3.60;0.65;;;25.10;34.90;;;;;;5013592;28;20026;-82
2021/05/12 12:11:36;;;;;;;3.38;0.40;;;24.60;36.70;;;;;;5014901;28;20140;-85
2021/05/12 12:14:02;;;;;;;3.20;0.70;;;24.40;37.60;;;;;;5029985;28;20486;-82
2021/05/12 12:16:29;;;;;;;5.07;0.73;;;24.40;37.50;;;;;;5015333;28;20057;-82
2021/05/12 12:18:55;;;;;;;5.18;0.60;;;24.40;37.00;;;;;;5014378;28;20041;-82
2021/05/12 12:21:31;;;;;;;3.03;0.50;;;24.50;36.90;;;;;;5030780;28;20040;-83
2021/05/12 12:24:09;;;;;;;3.13;0.50;;;24.60;37.50;;;;;;5026972;28;20037;-82
2021/05/12 12:26:36;;;;;;;3.83;0.50;;;25.00;36.90;;;;;;5021405;28;20022;-83
2021/05/12 12:29:06;;;;;;;3.88;0.40;;;25.00;36.10;;;;;;5010632;28;20034;-82
2021/05/12 12:32:00;;;;;;;4.75;0.50;;;24.90;36.10;;;;;;5016593;28;20030;-84
2021/05/12 12:34:31;;;;;;;3.13;0.50;;;25.30;36.80;;;;;;5015271;28;20050;-83
2021/05/12 12:37:02;;;;;;;3.13;0.45;;;25.80;36.80;;;;;;5012120;28;20037;-85
2021/05/12 12:39:44;;;;;;;3.10;0.50;;;26.10;35.50;;;;;;5017566;28;20045;-85
2021/05/12 12:42:10;;;;;;;2.65;0.50;;;26.10;35.20;;;;;;5035004;28;20045;-84
2021/05/12 12:44:42;;;;;;;2.22;0.40;;;26.10;34.60;;;;;;5026766;28;20113;-83
2021/05/12 12:47:17;;;;;;;2.73;0.50;;;26.00;35.10;;;;;;5028872;28;20032;-82
2021/05/12 12:49:58;;;;;;;2.40;0.40;;;26.20;34.80;;;;;;5019239;28;20288;-84
2021/05/12 12:52:43;;;;;;;3.60;0.70;;;26.50;34.80;;;;;;5023564;28;20018;-85
2021/05/12 12:55:15;;;;;;;2.53;0.40;;;26.70;34.20;;;;;;5023122;28;20028;-85